Saturday, February 17, 2018, 10:22 PM EST
Back to Local

K1P1, Plymouth, Plymouth Municipal Airport

Location: Plymouth, NH, United States Lat: 43.779
Local Time: 10:22 PM EST ( 3:22 GMT) Lon: -71.754
Time Zone: US/Eastern Elev: 505 ft

Show me the last for .
Show Coded

Time T Td Feel RH Dir Speed Gust Alt SLP Vis Weather Sky Remarks
2018-02-17 22:06 28 17 - 61 - Calm - 30.14 - 10 SCT025 BKN041 OVC049 None
2018-02-17 21:55 29 17 25 59 50° 3 - 30.14 - 10 BKN046 OVC060 None
2018-02-17 21:30 28 17 22 60 60° 6 - 30.14 - 10 SCT046 BKN060 OVC090 None
2018-02-17 21:06 28 16 21 60 70° 7 - 30.14 - 10 OVC100 None
2018-02-17 20:55 28 16 22 59 70° 6 - 30.15 - 10 OVC090 None
2018-02-17 20:26 28 16 20 59 70° 8 - 30.16 - 10 OVC090 None
2018-02-17 20:06 29 15 21 56 70° 8 - 30.17 - 10 BKN100 OVC120 None
2018-02-17 19:55 29 14 22 52 80° 7 - 30.18 - 10 BKN120 None
2018-02-17 19:31 29 14 22 51 90° 7 - 30.19 - 10 OVC110 None
2018-02-17 19:06 30 12 25 47 90° 5 - 30.19 - 10 BKN110 None
2018-02-17 18:55 30 10 25 42 80° 5 - 30.20 - 10 BKN120 6-hr Min Temp (7pm): 30.2°F
6-hr Max Temp (7pm): 34.2°F
2018-02-17 18:30 31 6 26 33 80° 5 - 30.21 - 10 BKN120 None
2018-02-17 18:06 31 6 27 34 90° 3 - 30.21 - 10 SCT120 None
2018-02-17 17:55 31 5 25 32 100° 6 - 30.22 - 10 CLR None
2018-02-17 17:26 31 5 26 32 100° 5 - 30.21 - 10 CLR None
2018-02-17 17:06 31 6 28 34 100° 3 - 30.21 - 10 CLR None
2018-02-17 16:55 32 5 27 31 100° 5 - 30.22 - 10 CLR None
2018-02-17 16:27 32 5 26 31 110° 6 - 30.24 - 10 CLR None
2018-02-17 16:15 32 5 27 31 110° 5 - 30.24 - 10 CLR None
2018-02-17 15:55 32 5 28 31 100° 5 - 30.26 - 10 CLR None
2018-02-17 15:27 33 4 27 29 110° 6 - 30.24 - 10 CLR None
2018-02-17 15:07 33 6 30 30 120° 3 - 30.25 - 10 CLR None
2018-02-17 14:55 34 6 - 30 - Calm - 30.27 - 10 CLR None
2018-02-17 14:26 34 4 30 27 180° 5 - 30.27 - 10 CLR None
2018-02-17 14:06 34 4 29 27 160° 6 - 30.26 - 10 CLR None
2018-02-17 13:55 33 4 - 28 - Calm - 30.25 - 10 CLR None
2018-02-17 13:27 32 4 26 29 70° 6 - 30.26 - 10 CLR None
2018-02-17 13:06 32 4 26 30 80° 7 - 30.28 - 10 CLR None
2018-02-17 12:55 32 2 28 27 70° 5 - 30.28 - 10 CLR 6-hr Min Temp (1pm): 11.1°F
6-hr Max Temp (1pm): 32.2°F
2018-02-17 12:24 32 0 - 24 - Calm - 30.29 - 10 CLR None
2018-02-17 12:06 32 1 - 25 - Calm - 30.31 - 10 CLR None
2018-02-17 11:55 30 0 - 26 - Calm - 30.32 - 10 CLR None
2018-02-17 11:27 29 1 - 29 - Calm - 30.33 - 10 CLR None
2018-02-17 11:07 28 0 - 29 - Calm - 30.34 - 10 CLR None
2018-02-17 10:55 28 0 - 29 - Calm - 30.35 - 10 CLR None
2018-02-17 10:28 26 0 - 31 - Calm - 30.36 - 10 CLR None
2018-02-17 10:06 25 1 - 34 - Calm - 30.36 - 10 CLR None
2018-02-17 09:55 24 3 - 39 - Calm - 30.36 - 10 CLR None
2018-02-17 09:33 22 2 18 41 290° 3 - 30.38 - 10 CLR None
2018-02-17 09:06 22 2 - 42 - Calm - 30.39 - 10 CLR None
2018-02-17 08:55 20 4 15 48 310° 3 - 30.39 - 10 CLR None
2018-02-17 08:26 18 4 11 53 290° 5 - 30.41 - 10 CLR None
2018-02-17 08:07 15 6 10 64 280° 3 - 30.40 - 10 CLR None
2018-02-17 07:55 13 5 - 71 - Calm - 30.39 - 10 CLR None
2018-02-17 07:27 11 4 - 72 - Calm - 30.38 - 10 CLR None
2018-02-17 07:15 13 4 - 66 - Calm - 30.36 - 10 CLR None
2018-02-17 06:55 14 4 - 63 - Calm - 30.35 - 10 CLR 24-hr Precip Total (7am): 0.01"
6-hr Min Temp (7am): 13.8°F
6-hr Max Temp (7am): 24.4°F
2018-02-17 06:28 16 3 - 54 - Calm - 30.32 - 10 CLR None
2018-02-17 06:06 18 3 - 52 - Calm - 30.32 - 10 CLR None
2018-02-17 05:55 19 2 - 48 - Calm - 30.31 - 10 CLR None
2018-02-17 05:27 19 2 - 47 - Calm - 30.29 - 10 CLR None
2018-02-17 05:06 19 3 10 48 290° 7 - 30.27 - 10 CLR None
2018-02-17 04:55 19 3 7 48 300° 12 - 30.26 - 10 CLR None
2018-02-17 04:26 20 2 4 46 290° 10 20 30.24 - 10 CLR None
2018-02-17 04:06 20 3 9 46 280° 10 - 30.23 - 10 CLR None
2018-02-17 03:55 20 4 8 49 300° 13 - 30.23 - 10 CLR None
2018-02-17 03:27 21 5 11 49 310° 8 - 30.21 - 10 CLR None
2018-02-17 03:06 21 5 11 49 300° 8 - 30.21 - 10 CLR None
2018-02-17 02:55 21 6 14 50 300° 6 - 30.19 - 10 CLR None
2018-02-17 02:27 22 7 12 51 310° 9 - 30.18 - 10 CLR None
2018-02-17 02:01 22 7 15 51 340° 6 - 30.18 - 10 CLR None
2018-02-17 01:55 22 8 12 52 330° 9 - 30.16 - 10 CLR None
2018-02-17 01:26 23 8 13 52 340° 9 - 30.14 - 10 SCT040 None
2018-02-17 01:01 24 9 10 53 310° 10 18 30.14 - 10 BKN040 None
2018-02-17 00:55 24 10 11 52 310° 9 16 30.13 - 10 OVC040 6-hr Min Temp (1am): 24.4°F
6-hr Max Temp (1am): 33.8°F
2018-02-17 00:26 25 11 11 53 320° 7 20 30.11 - 10 OVC038 None
2018-02-17 00:06 26 12 11 54 310° 12 22 30.09 - 10 OVC038 None
2018-02-16 23:55 27 14 13 58 320° 9 20 30.07 - 10 OVC036 None
2018-02-16 23:30 27 16 16 62 300° 10 14 30.06 - 10 OVC036 None
2018-02-16 23:07 28 16 15 62 320° 8 16 30.04 - 10 BKN034 OVC041 None
2018-02-16 22:55 28 18 14 66 320° 13 22 30.02 - 10 SCT036 OVC041 24-hr Min Temp (11pm): 27.5°F
24-hr Max Temp (11pm): 44.8°F
2018-02-16 22:27 28 20 15 73 300° 13 18 30.01 - 10 -SN OVC039 None

Support USWX by starting your Amazon purchase here.